Time;durP1;ratioP1;P1;durP2;ratioP2;P2;SDS_P1;SDS_P2;PMS_P1;PMS_P2;Temp;Humidity;BMP_temperature;BMP_pressure;BME280_temperature;BME280_humidity;BME280_pressure;Samples;Min_cycle;Max_cycle;Signal;HPM_P1;HPM_P2
2023/09/06 00:01:08;;;;;;;9.52;2.90;;;;;;;22.79;100.00;100579.78;5022311;28;20026;-77
2023/09/06 00:03:36;;;;;;;8.18;2.92;;;;;;;22.76;100.00;100587.00;5040944;28;20044;-78
2023/09/06 00:06:03;;;;;;;10.20;2.67;;;;;;;22.73;100.00;100588.63;5041065;28;20473;-77
2023/09/06 00:08:28;;;;;;;5.47;2.40;;;;;;;22.71;100.00;100593.81;5037697;28;20022;-77
2023/09/06 00:10:54;;;;;;;11.57;2.60;;;;;;;22.68;100.00;100585.28;5035627;28;20036;-77
2023/09/06 00:13:20;;;;;;;13.43;3.05;;;;;;;22.64;100.00;100592.84;5057595;28;20352;-77
2023/09/06 00:15:47;;;;;;;13.35;2.65;;;;;;;22.60;100.00;100594.81;5024311;28;20496;-77
2023/09/06 00:18:12;;;;;;;11.50;2.95;;;;;;;22.63;100.00;100594.06;5040944;28;20119;-77
2023/09/06 00:20:38;;;;;;;13.77;2.75;;;;;;;22.57;100.00;100587.88;5022138;28;20021;-77
2023/09/06 00:23:09;;;;;;;7.57;2.80;;;;;;;22.53;100.00;100589.81;5053733;28;20115;-78
2023/09/06 00:25:34;;;;;;;8.98;2.90;;;;;;;22.52;100.00;100586.16;5031189;28;20034;-78
2023/09/06 00:28:03;;;;;;;10.82;3.03;;;;;;;22.49;100.00;100588.94;5004550;28;20044;-78
2023/09/06 00:30:28;;;;;;;12.50;3.10;;;;;;;22.43;100.00;100584.78;5023212;28;20104;-78
2023/09/06 00:32:54;;;;;;;10.25;2.88;;;;;;;22.38;100.00;100588.72;5040172;28;20045;-77
2023/09/06 00:35:26;;;;;;;12.18;3.13;;;;;;;22.36;100.00;100591.09;5010698;28;20040;-77
2023/09/06 00:37:52;;;;;;;6.35;2.33;;;;;;;22.30;100.00;100584.09;5048839;28;20025;-77
2023/09/06 00:40:21;;;;;;;11.52;3.00;;;;;;;22.27;100.00;100585.66;5052370;28;20040;-77
2023/09/06 00:42:50;;;;;;;12.95;2.90;;;;;;;22.25;100.00;100590.84;5039692;28;20043;-77
2023/09/06 00:45:17;;;;;;;9.48;3.28;;;;;;;22.22;100.00;100582.31;5057023;28;20040;-77
2023/09/06 00:47:43;;;;;;;12.85;2.92;;;;;;;22.19;100.00;100585.88;5024018;28;20057;-78
2023/09/06 00:50:10;;;;;;;12.05;2.85;;;;;;;22.16;100.00;100589.41;5056361;28;20430;-77
2023/09/06 00:52:37;;;;;;;7.75;2.70;;;;;;;22.14;100.00;100584.13;5023940;28;20035;-77
2023/09/06 00:55:03;;;;;;;9.18;2.92;;;;;;;22.11;100.00;100589.72;5020065;28;20034;-77
2023/09/06 00:57:32;;;;;;;14.88;3.35;;;;;;;22.03;100.00;100589.53;5011328;28;20025;-77
2023/09/06 01:00:01;;;;;;;10.57;3.03;;;;;;;22.01;100.00;100580.63;5036470;28;20030;-77
2023/09/06 01:02:26;;;;;;;12.13;3.50;;;;;;;21.95;100.00;100587.72;5048335;28;20491;-77
2023/09/06 01:04:53;;;;;;;12.10;3.10;;;;;;;21.92;100.00;100582.00;5006837;28;20021;-77
2023/09/06 01:07:19;;;;;;;9.88;2.90;;;;;;;21.88;100.00;100590.41;5039582;28;20108;-77
2023/09/06 01:09:44;;;;;;;11.25;3.10;;;;;;;21.86;100.00;100584.31;5006993;28;20468;-77
2023/09/06 01:12:12;;;;;;;10.90;3.20;;;;;;;21.80;100.00;100585.78;5023278;28;20033;-77
2023/09/06 01:14:40;;;;;;;11.70;2.90;;;;;;;21.76;100.00;100576.41;5020046;28;20038;-77
2023/09/06 01:17:09;;;;;;;12.55;3.13;;;;;;;21.72;100.00;100581.97;5049107;28;20025;-77
2023/09/06 01:19:35;;;;;;;9.20;3.00;;;;;;;21.72;100.00;100583.97;5039944;28;20375;-77
2023/09/06 01:22:10;;;;;;;9.05;2.60;;;;;;;21.70;100.00;100594.81;5041277;28;20444;-77
2023/09/06 01:24:36;;;;;;;12.63;2.95;;;;;;;21.69;100.00;100584.72;5052763;28;20104;-77
2023/09/06 01:27:02;;;;;;;10.90;2.97;;;;;;;21.64;100.00;100586.63;5042475;28;20061;-77
2023/09/06 01:29:31;;;;;;;10.55;3.38;;;;;;;21.62;100.00;100591.84;5020419;28;20379;-77
2023/09/06 01:31:57;;;;;;;8.93;2.78;;;;;;;21.58;100.00;100590.94;5055921;28;20111;-77
2023/09/06 01:34:22;;;;;;;9.55;2.92;;;;;;;21.57;100.00;100592.13;5016089;28;20030;-77
2023/09/06 01:36:48;;;;;;;13.25;3.90;;;;;;;21.55;100.00;100594.50;5065766;28;20025;-77
2023/09/06 01:39:13;;;;;;;10.90;3.17;;;;;;;21.51;100.00;100590.78;5039451;28;20075;-78
2023/09/06 01:41:39;;;;;;;10.60;3.17;;;;;;;21.48;100.00;100590.66;5019751;28;20061;-77
2023/09/06 01:44:04;;;;;;;10.68;2.88;;;;;;;21.47;100.00;100587.03;5038336;28;20037;-77
2023/09/06 01:46:30;;;;;;;13.88;3.25;;;;;;;21.45;100.00;100586.56;5055938;28;20112;-78
2023/09/06 01:48:59;;;;;;;10.70;3.30;;;;;;;21.40;100.00;100592.50;5040336;28;20037;-78
2023/09/06 01:51:24;;;;;;;14.95;3.38;;;;;;;21.38;100.00;100592.06;5024905;28;20508;-77
2023/09/06 01:53:50;;;;;;;8.30;2.63;;;;;;;21.33;100.00;100584.63;5059884;28;20025;-77
2023/09/06 01:56:15;;;;;;;11.65;3.05;;;;;;;21.33;100.00;100581.81;5041043;28;20030;-77
2023/09/06 01:58:41;;;;;;;10.57;2.97;;;;;;;21.28;100.00;100578.44;5059978;28;20032;-77
2023/09/06 02:01:09;;;;;;;7.85;2.72;;;;;;;21.32;100.00;100583.00;5044359;28;20033;-77
2023/09/06 02:03:35;;;;;;;8.25;2.97;;;;;;;21.24;100.00;100591.66;5041202;28;20021;-77
2023/09/06 02:06:04;;;;;;;10.40;2.95;;;;;;;21.19;100.00;100584.28;5059933;28;20036;-77
2023/09/06 02:08:30;;;;;;;8.43;2.80;;;;;;;21.19;100.00;100584.28;5023318;28;20029;-77
2023/09/06 02:10:55;;;;;;;11.80;3.15;;;;;;;21.14;100.00;100591.00;5008871;28;20032;-77
2023/09/06 02:13:21;;;;;;;9.73;2.85;;;;;;;21.13;100.00;100592.19;5050703;28;20374;-77
2023/09/06 02:15:46;;;;;;;9.68;2.67;;;;;;;21.06;100.00;100591.19;5041769;28;20033;-77
2023/09/06 02:18:15;;;;;;;7.57;3.10;;;;;;;21.02;100.00;100588.28;5028939;28;20025;-77
2023/09/06 02:20:41;;;;;;;6.82;2.80;;;;;;;21.01;100.00;100589.47;5039477;28;20071;-77
2023/09/06 02:23:07;;;;;;;9.60;3.30;;;;;;;21.01;100.00;100588.66;5041233;28;20025;-77
2023/09/06 02:25:33;;;;;;;9.85;2.83;;;;;;;20.96;100.00;100582.09;5062790;28;20032;-77
2023/09/06 02:28:03;;;;;;;10.40;3.03;;;;;;;20.97;100.00;100585.72;5006634;28;20068;-77
2023/09/06 02:30:28;;;;;;;8.57;2.78;;;;;;;20.91;100.00;100588.00;5053979;28;20112;-77
2023/09/06 02:32:54;;;;;;;12.52;3.17;;;;;;;20.87;100.00;100575.81;5049624;28;20187;-77
2023/09/06 02:35:20;;;;;;;9.18;2.97;;;;;;;20.84;100.00;100570.88;5040340;28;20500;-77
2023/09/06 02:37:46;;;;;;;10.15;3.28;;;;;;;20.83;100.00;100566.41;5042247;28;20108;-77
2023/09/06 02:40:17;;;;;;;10.10;3.00;;;;;;;20.87;100.00;100575.00;5024173;28;20055;-78
2023/09/06 02:42:44;;;;;;;8.98;3.05;;;;;;;20.82;100.00;100569.59;5042264;28;20037;-77
2023/09/06 02:45:11;;;;;;;14.98;3.20;;;;;;;20.76;100.00;100566.22;5025248;28;20061;-77
2023/09/06 02:47:50;;;;;;;8.52;3.30;;;;;;;20.75;100.00;100562.59;5026407;28;20037;-77
2023/09/06 02:50:18;;;;;;;7.15;3.05;;;;;;;20.76;100.00;100563.41;5028025;28;20029;-77
2023/09/06 02:52:46;;;;;;;11.73;3.17;;;;;;;20.75;100.00;100565.41;5042200;28;20087;-77
2023/09/06 02:55:13;;;;;;;12.93;3.38;;;;;;;20.70;100.00;100560.03;5023038;28;20041;-77
2023/09/06 02:57:41;;;;;;;8.57;3.22;;;;;;;20.66;100.00;100563.91;5038093;28;20036;-77
2023/09/06 03:00:20;;;;;;;10.38;2.75;;;;;;;20.63;100.00;100568.28;5059371;28;20674;-77
2023/09/06 03:02:46;;;;;;;11.20;2.78;;;;;;;20.59;100.00;100558.91;5028967;28;20044;-77
2023/09/06 03:05:17;;;;;;;14.57;3.70;;;;;;;20.57;100.00;100564.09;5042075;28;20036;-77
2023/09/06 03:07:48;;;;;;;8.70;2.63;;;;;;;20.55;100.00;100562.81;5056805;28;20065;-77
2023/09/06 03:10:19;;;;;;;9.60;3.22;;;;;;;20.52;100.00;100562.31;5006906;28;20026;-77
2023/09/06 03:12:55;;;;;;;9.90;3.05;;;;;;;20.52;100.00;100565.13;5022744;28;20060;-77
2023/09/06 03:15:23;;;;;;;8.52;3.35;;;;;;;20.51;100.00;100559.88;5023816;28;20064;-77
2023/09/06 03:17:53;;;;;;;13.75;3.30;;;;;;;20.49;100.00;100571.50;5006142;28;20061;-77
2023/09/06 03:20:20;;;;;;;14.63;3.42;;;;;;;20.45;100.00;100566.97;5017953;28;20035;-77
2023/09/06 03:22:47;;;;;;;7.38;2.75;;;;;;;20.47;100.00;100570.22;5009846;28;20040;-77
2023/09/06 03:25:14;;;;;;;9.98;3.05;;;;;;;20.42;100.00;100565.66;5039497;28;20125;-77
2023/09/06 03:27:41;;;;;;;9.52;2.83;;;;;;;20.40;100.00;100579.31;5019017;28;20026;-77
2023/09/06 03:30:08;;;;;;;9.75;3.20;;;;;;;20.35;100.00;100573.91;5023195;28;20029;-77
2023/09/06 03:32:33;;;;;;;10.95;2.92;;;;;;;20.32;100.00;100580.28;5024983;28;20075;-77
2023/09/06 03:35:00;;;;;;;8.75;2.95;;;;;;;20.30;100.00;100580.63;5053963;28;20436;-77
2023/09/06 03:37:28;;;;;;;12.30;3.15;;;;;;;20.27;100.00;100584.16;5036180;28;20030;-77
2023/09/06 03:39:54;;;;;;;11.05;2.97;;;;;;;20.27;100.00;100583.34;5014399;28;20389;-77
2023/09/06 03:42:20;;;;;;;10.65;3.13;;;;;;;20.25;100.00;100583.72;5018254;28;20021;-77
2023/09/06 03:44:46;;;;;;;9.13;3.00;;;;;;;20.25;100.00;100589.34;5022305;28;20390;-77
2023/09/06 03:47:15;;;;;;;14.93;3.72;;;;;;;20.22;100.00;100584.41;5035015;28;20462;-77
2023/09/06 03:49:40;;;;;;;14.10;3.53;;;;;;;20.21;100.00;100596.06;5035547;28;20427;-77
2023/09/06 03:52:06;;;;;;;11.18;3.33;;;;;;;20.19;100.00;100587.13;5034108;28;20057;-77
2023/09/06 03:54:34;;;;;;;10.10;3.22;;;;;;;20.16;100.00;100585.84;5017308;28;20449;-77
2023/09/06 03:57:01;;;;;;;13.35;3.58;;;;;;;20.17;100.00;100584.69;5019077;28;20104;-77
2023/09/06 03:59:27;;;;;;;14.00;3.45;;;;;;;20.17;100.00;100589.47;5014623;28;20041;-78
2023/09/06 04:01:55;;;;;;;7.32;2.80;;;;;;;20.13;100.00;100588.56;5023136;28;20108;-77
2023/09/06 04:04:22;;;;;;;11.95;3.13;;;;;;;20.10;100.00;100590.09;5002547;28;20210;-77
2023/09/06 04:06:47;;;;;;;7.35;2.78;;;;;;;20.10;100.00;100584.47;5008586;28;20033;-77
2023/09/06 04:09:13;;;;;;;9.18;3.25;;;;;;;20.07;100.00;100585.19;5034076;28;20393;-77
2023/09/06 04:11:42;;;;;;;8.50;2.83;;;;;;;20.04;100.00;100586.72;5024921;28;20041;-77
2023/09/06 04:14:10;;;;;;;10.63;3.08;;;;;;;20.05;100.00;100587.53;5031027;28;20033;-77
2023/09/06 04:16:37;;;;;;;11.10;3.33;;;;;;;20.02;100.00;100591.06;5009516;28;20025;-77
2023/09/06 04:19:03;;;;;;;9.05;3.20;;;;;;;20.00;100.00;100590.59;5025908;28;20104;-77
2023/09/06 04:21:28;;;;;;;9.52;2.97;;;;;;;19.99;100.00;100592.59;5045274;28;20055;-77
2023/09/06 04:23:55;;;;;;;13.30;3.65;;;;;;;19.98;100.00;100592.97;5023532;28;20025;-77
2023/09/06 04:26:20;;;;;;;12.70;3.55;;;;;;;19.96;100.00;100589.66;5020952;28;20041;-77
2023/09/06 04:28:45;;;;;;;13.60;3.25;;;;;;;19.94;100.00;100587.19;5015449;28;20030;-77
2023/09/06 04:31:11;;;;;;;11.73;4.03;;;;;;;19.92;100.00;100583.94;5009103;28;20366;-77
2023/09/06 04:33:37;;;;;;;8.57;3.35;;;;;;;19.90;100.00;100583.47;5051004;28;20546;-77
2023/09/06 04:36:04;;;;;;;10.73;3.90;;;;;;;19.89;100.00;100589.44;5011412;28;20106;-77
2023/09/06 04:38:31;;;;;;;8.18;2.92;;;;;;;19.86;100.00;100585.31;5026212;28;20458;-77
2023/09/06 04:40:56;;;;;;;13.07;3.13;;;;;;;19.82;100.00;100585.22;5020822;28;20030;-77
2023/09/06 04:43:22;;;;;;;11.73;3.70;;;;;;;19.82;100.00;100584.41;5005557;28;20021;-77
2023/09/06 04:45:49;;;;;;;13.82;3.47;;;;;;;19.82;100.00;100587.22;5020813;28;20059;-77
2023/09/06 04:48:17;;;;;;;11.13;3.03;;;;;;;19.78;100.00;100584.31;5033842;28;20482;-77
2023/09/06 04:50:43;;;;;;;12.45;3.10;;;;;;;19.76;100.00;100581.00;5031300;28;20045;-77
2023/09/06 04:53:11;;;;;;;8.15;3.15;;;;;;;19.76;100.00;100581.00;5044627;28;20029;-77
2023/09/06 04:55:37;;;;;;;9.55;3.28;;;;;;;19.74;100.00;100586.19;5036797;28;20068;-77
2023/09/06 04:58:03;;;;;;;10.13;3.38;;;;;;;19.75;100.00;100590.66;5017553;28;20385;-77
2023/09/06 05:00:36;;;;;;;17.05;4.03;;;;;;;19.72;100.00;100591.34;5036693;28;20040;-77
2023/09/06 05:03:01;;;;;;;;;;;;;;;19.68;100.00;100593.22;5001700;28;20481;-77
2023/09/06 05:05:27;;;;;;;12.48;3.15;;;;;;;19.68;100.00;100590.41;5029775;28;19913;-77
2023/09/06 05:07:52;;;;;;;9.13;3.00;;;;;;;19.66;100.00;100592.75;5033369;28;20037;-77
2023/09/06 05:10:18;;;;;;;13.40;3.00;;;;;;;19.68;100.00;100595.25;5020091;28;20034;-77
2023/09/06 05:12:45;;;;;;;8.32;3.03;;;;;;;19.64;100.00;100595.91;4987245;28;20109;-77
2023/09/06 05:15:12;;;;;;;7.85;2.90;;;;;;;19.63;100.00;100596.25;5011065;28;20091;-77
2023/09/06 05:17:38;;;;;;;12.63;3.70;;;;;;;19.62;100.00;100598.25;5049602;28;20070;-77
2023/09/06 05:20:42;;;;;;;10.43;3.35;;;;;;;19.59;100.00;100606.59;4987282;28;20030;-77
2023/09/06 05:23:09;;;;;;;13.35;2.75;;;;;;;19.58;100.00;100596.50;5057425;28;20029;-77
2023/09/06 05:25:35;;;;;;;8.57;3.13;;;;;;;19.53;100.00;100594.75;5008740;28;20048;-77
2023/09/06 05:28:05;;;;;;;8.38;2.83;;;;;;;19.56;100.00;100604.50;5029222;28;20044;-77
2023/09/06 05:30:31;;;;;;;11.75;3.58;;;;;;;19.51;100.00;100596.28;5037537;28;20029;-77
2023/09/06 05:32:57;;;;;;;10.15;3.15;;;;;;;19.53;100.00;100603.19;5038523;28;20068;-77
2023/09/06 05:35:24;;;;;;;9.70;3.03;;;;;;;19.48;100.00;100597.78;5019558;28;20053;-77
2023/09/06 05:37:50;;;;;;;9.63;2.70;;;;;;;19.47;100.00;100598.94;5038323;28;20405;-77
2023/09/06 05:40:16;;;;;;;8.88;2.92;;;;;;;19.48;100.00;100611.06;5035551;28;20033;-77
2023/09/06 05:42:42;;;;;;;11.02;3.55;;;;;;;19.43;100.00;100610.09;5052565;28;20068;-77
2023/09/06 05:45:11;;;;;;;12.27;3.60;;;;;;;19.42;100.00;100613.28;5056500;28;20040;-77
2023/09/06 05:47:38;;;;;;;12.40;3.60;;;;;;;19.43;100.00;100612.09;5027392;28;20040;-77
2023/09/06 05:50:04;;;;;;;8.65;3.17;;;;;;;19.41;100.00;100609.63;5040675;28;20037;-77
2023/09/06 05:52:30;;;;;;;10.30;3.63;;;;;;;19.40;100.00;100610.81;5015929;28;20037;-77
2023/09/06 05:54:55;;;;;;;10.85;3.22;;;;;;;19.42;100.00;100616.09;5035975;28;20071;-77
2023/09/06 05:57:21;;;;;;;10.10;3.33;;;;;;;19.38;100.00;100610.34;5003411;28;20025;-77
2023/09/06 05:59:46;;;;;;;12.02;3.20;;;;;;;19.39;100.00;100609.19;5032947;28;20029;-77
2023/09/06 06:02:14;;;;;;;10.05;3.00;;;;;;;19.38;100.00;100607.53;5009957;28;20063;-77
2023/09/06 06:04:41;;;;;;;11.15;2.90;;;;;;;19.38;100.00;100609.53;5006513;28;20029;-77
2023/09/06 06:07:06;;;;;;;8.32;2.90;;;;;;;19.39;100.00;100614.81;5019432;28;20029;-77
2023/09/06 06:09:32;;;;;;;10.77;3.40;;;;;;;19.40;100.00;100608.00;5052473;28;20036;-77
2023/09/06 06:11:57;;;;;;;9.50;3.30;;;;;;;19.43;100.00;100610.09;5039057;28;20029;-77
2023/09/06 06:14:27;;;;;;;10.32;3.20;;;;;;;19.45;100.00;100606.13;5006043;28;20026;-77
2023/09/06 06:16:52;;;;;;;9.88;3.30;;;;;;;19.46;100.00;100604.94;5004309;28;20118;-77
2023/09/06 06:19:19;;;;;;;10.43;3.45;;;;;;;19.46;100.00;100604.94;5002837;28;20040;-77
2023/09/06 06:21:45;;;;;;;16.30;3.70;;;;;;;19.50;100.00;100605.88;5002984;28;20033;-77
2023/09/06 06:24:12;;;;;;;7.00;2.90;;;;;;;19.55;100.00;100608.47;5010469;28;20029;-77
2023/09/06 06:26:37;;;;;;;11.18;3.10;;;;;;;19.58;100.00;100610.56;5010478;28;20034;-77
2023/09/06 06:29:03;;;;;;;9.95;3.10;;;;;;;19.62;100.00;100611.53;5003070;28;20037;-77
2023/09/06 06:31:28;;;;;;;12.27;3.00;;;;;;;19.63;100.00;100605.53;5002740;28;20500;-77
2023/09/06 06:33:54;;;;;;;14.43;3.20;;;;;;;19.71;100.00;100611.44;5018603;28;20475;-77
2023/09/06 06:36:21;;;;;;;10.45;3.10;;;;;;;19.73;100.00;100607.09;5010208;28;20497;-77
2023/09/06 06:38:46;;;;;;;12.05;3.63;;;;;;;19.81;100.00;100606.13;5042522;28;20059;-77
2023/09/06 06:41:22;;;;;;;9.18;3.03;;;;;;;19.89;100.00;100611.97;5023040;28;20030;-77
2023/09/06 06:43:50;;;;;;;10.50;3.08;;;;;;;19.95;100.00;100614.22;5020969;28;20083;-77
2023/09/06 06:46:23;;;;;;;9.68;3.35;;;;;;;20.02;100.00;100620.06;5050646;28;20138;-77
2023/09/06 06:48:49;;;;;;;11.30;3.17;;;;;;;20.12;100.00;100623.59;5022651;28;20029;-77
2023/09/06 06:51:14;;;;;;;12.35;3.50;;;;;;;20.21;100.00;100616.63;5034488;28;20362;-77
2023/09/06 06:53:40;;;;;;;10.00;3.42;;;;;;;20.32;100.00;100625.41;5009463;28;20025;-77
2023/09/06 06:56:06;;;;;;;10.40;3.38;;;;;;;20.41;100.00;100622.44;5039213;28;20041;-77
2023/09/06 06:58:32;;;;;;;13.35;3.67;;;;;;;20.50;100.00;100618.28;5022761;28;20029;-77
2023/09/06 07:00:57;;;;;;;9.43;3.33;;;;;;;20.64;100.00;100629.16;5034914;28;20036;-78
2023/09/06 07:03:24;;;;;;;13.50;3.70;;;;;;;20.77;100.00;100629.13;5005941;28;20031;-77
2023/09/06 07:05:49;;;;;;;11.65;3.90;;;;;;;20.91;100.00;100629.53;5022195;28;20029;-77
2023/09/06 07:08:15;;;;;;;15.38;3.72;;;;;;;21.04;100.00;100625.44;5039673;28;20513;-78
2023/09/06 07:10:40;;;;;;;10.30;3.45;;;;;;;21.17;100.00;100627.03;5022304;28;20033;-77
2023/09/06 07:13:06;;;;;;;11.70;3.67;;;;;;;21.30;100.00;100626.91;5024495;28;20493;-78
2023/09/06 07:15:31;;;;;;;9.68;3.17;;;;;;;21.44;100.00;100618.03;5029872;28;20033;-78
2023/09/06 07:17:57;;;;;;;12.25;3.40;;;;;;;21.57;100.00;100614.72;5041060;28;20040;-78
2023/09/06 07:20:22;;;;;;;10.57;3.67;;;;;;;21.71;100.00;100616.28;5005561;28;20029;-77
2023/09/06 07:22:48;;;;;;;13.95;4.00;;;;;;;21.85;100.00;100620.25;5051717;28;20021;-78
2023/09/06 07:25:14;;;;;;;13.55;3.90;;;;;;;22.00;100.00;100624.22;5003639;28;20034;-78
2023/09/06 07:27:39;;;;;;;11.32;3.53;;;;;;;22.16;100.00;100621.34;5052369;28;20041;-78
2023/09/06 07:30:06;;;;;;;16.23;4.28;;;;;;;22.28;100.00;100623.25;5034331;28;20025;-77
2023/09/06 07:32:32;;;;;;;10.43;3.60;;;;;;;22.46;100.00;100624.44;5035115;28;20569;-78
2023/09/06 07:34:57;;;;;;;11.35;3.47;;;;;;;22.59;100.00;100627.13;5005148;28;20061;-78
2023/09/06 07:37:22;;;;;;;14.32;3.80;;;;;;;22.74;100.00;100626.22;5019286;28;20025;-78
2023/09/06 07:39:48;;;;;;;12.13;3.50;;;;;;;22.85;100.00;100623.63;5037873;28;20032;-78
2023/09/06 07:42:13;;;;;;;13.82;4.15;;;;;;;22.97;100.00;100631.97;5053348;28;20060;-78
2023/09/06 07:44:39;;;;;;;15.48;4.18;;;;;;;23.13;100.00;100634.69;5050058;28;20445;-78
2023/09/06 07:47:04;;;;;;;10.07;3.72;;;;;;;23.25;100.00;100631.66;5040916;28;20074;-78
2023/09/06 07:49:33;;;;;;;17.23;3.85;;;;;;;23.37;100.00;100637.16;4999211;28;20111;-78
2023/09/06 07:52:04;;;;;;;16.90;5.00;;;;;;;23.51;100.00;100644.25;5023152;28;20034;-77
2023/09/06 07:54:30;;;;;;;16.77;4.53;;;;;;;23.63;100.00;100638.38;5047401;28;20033;-78
2023/09/06 07:56:56;;;;;;;17.90;4.45;;;;;;;23.76;100.00;100634.16;5041438;28;20029;-78
2023/09/06 07:59:24;;;;;;;19.23;4.65;;;;;;;23.91;100.00;100638.03;5008420;28;20457;-76
2023/09/06 08:01:50;;;;;;;15.48;4.80;;;;;;;24.09;100.00;100635.47;5037281;28;20079;-78
2023/09/06 08:04:19;;;;;;;19.73;4.80;;;;;;;24.25;100.00;100636.09;5018005;28;20563;-78
2023/09/06 08:06:46;;;;;;;18.60;4.55;;;;;;;24.43;100.00;100635.50;5024990;28;20558;-78
2023/09/06 08:09:12;;;;;;;12.80;4.07;;;;;;;24.63;100.00;100636.22;5055448;28;20412;-78
2023/09/06 08:11:37;;;;;;;12.57;3.80;;;;;;;24.86;100.00;100642.56;5017311;28;20037;-78
2023/09/06 08:14:03;;;;;;;16.13;3.72;;;;;;;25.06;100.00;100648.88;5037744;28;20390;-79
2023/09/06 08:16:29;;;;;;;24.45;4.60;;;;;;;25.24;100.00;100651.94;5004538;28;20021;-78
2023/09/06 08:18:56;;;;;;;20.40;4.28;;;;;;;25.38;100.00;100663.44;5034415;28;20029;-78
2023/09/06 08:21:21;;;;;;;17.48;4.13;;;;;;;25.51;100.00;100655.44;5024114;28;20039;-78
2023/09/06 08:23:47;;;;;;;15.88;4.00;;;;;;;25.64;100.00;100665.28;5020861;28;20029;-79
2023/09/06 08:26:13;;;;;;;21.38;4.47;;;;;;;25.80;100.00;100659.34;5053009;28;20362;-79
2023/09/06 08:28:39;;;;;;;15.82;3.65;;;;;;;25.91;100.00;100653.75;5021659;28;20097;-79
2023/09/06 08:31:04;;;;;;;15.43;3.83;;;;;;;26.07;100.00;100657.09;5021036;28;20474;-79
2023/09/06 08:33:30;;;;;;;18.35;4.63;;;;;;;26.21;100.00;100669.78;5015126;28;20056;-79
2023/09/06 08:35:55;;;;;;;18.40;4.00;;;;;;;26.37;100.00;100660.94;5020838;28;20080;-78
2023/09/06 08:38:21;;;;;;;14.27;3.40;;;;;;;26.54;100.00;100656.59;5013616;28;20363;-78
2023/09/06 08:40:46;;;;;;;20.50;4.18;;;;;;;26.67;100.00;100655.03;5040090;28;20067;-78
2023/09/06 08:43:14;;;;;;;15.80;3.60;;;;;;;26.83;100.00;100658.34;5020131;28;20021;-78
2023/09/06 08:45:41;;;;;;;18.52;3.90;;;;;;;26.93;100.00;100663.25;5056758;28;20055;-78
2023/09/06 08:48:07;;;;;;;22.48;4.45;;;;;;;27.01;100.00;100658.38;5058142;28;20033;-78
2023/09/06 08:50:33;;;;;;;14.30;3.33;;;;;;;27.14;100.00;100651.09;5020061;28;20123;-78
2023/09/06 08:52:59;;;;;;;15.88;3.42;;;;;;;27.28;100.00;100649.53;5026151;28;20108;-78
2023/09/06 08:55:25;;;;;;;13.93;3.47;;;;;;;27.37;100.00;100655.63;5033564;28;20041;-78
2023/09/06 08:57:50;;;;;;;13.60;3.30;;;;;;;27.50;100.00;100654.03;5020874;28;20030;-78
2023/09/06 09:00:16;;;;;;;9.88;2.60;;;;;;;27.64;100.00;100656.06;5019621;28;20163;-78
2023/09/06 09:02:46;;;;;;;11.43;2.88;;;;;;;27.81;100.00;100660.16;5020458;28;20026;-78
2023/09/06 09:05:11;;;;;;;11.50;3.25;;;;;;;27.94;100.00;100657.69;5021550;28;20034;-78
2023/09/06 09:07:37;;;;;;;12.70;3.10;;;;;;;28.10;100.00;100660.94;5015698;28;20038;-78
2023/09/06 09:10:10;;;;;;;11.73;3.03;;;;;;;28.25;100.00;100651.13;5020370;28;20029;-78
2023/09/06 09:12:37;;;;;;;12.93;2.80;;;;;;;28.42;100.00;100657.19;5038474;28;20037;-78
2023/09/06 09:15:03;;;;;;;12.93;2.90;;;;;;;28.54;100.00;100651.03;4996933;28;20393;-78
2023/09/06 09:17:29;;;;;;;9.60;2.42;;;;;;;28.67;100.00;100652.22;5010716;28;20033;-78
2023/09/06 09:19:56;;;;;;;10.50;2.60;;;;;;;28.81;100.00;100659.09;5029140;28;20025;-78
2023/09/06 09:22:28;;;;;;;10.55;2.45;;;;;;;28.93;100.00;100650.03;5031581;28;20036;-78
2023/09/06 09:24:58;;;;;;;12.35;2.65;;;;;;;29.08;100.00;100651.59;5007369;28;20021;-78
2023/09/06 09:27:27;;;;;;;12.07;2.55;;;;;;;29.22;100.00;100642.13;5022166;28;20481;-78
2023/09/06 09:29:55;;;;;;;13.43;2.28;;;;;;;29.38;100.00;100644.47;5031506;28;20028;-78
2023/09/06 09:32:22;;;;;;;11.98;2.90;;;;;;;29.52;100.00;100647.22;5055753;28;20049;-78
2023/09/06 09:34:47;;;;;;;12.45;2.85;;;;;;;29.71;100.00;100645.88;5029336;28;20037;-78
2023/09/06 09:37:13;;;;;;;8.85;2.30;;;;;;;29.88;100.00;100646.13;5036262;28;20503;-78
2023/09/06 09:39:38;;;;;;;12.63;2.38;;;;;;;30.03;100.00;100639.84;5019907;28;20034;-78
2023/09/06 09:42:05;;;;;;;12.93;2.30;;;;;;;30.17;96.49;100635.19;5050754;28;20037;-79
2023/09/06 09:44:31;;;;;;;11.00;2.33;;;;;;;30.30;90.43;100639.16;5020273;28;20049;-79
2023/09/06 09:46:57;;;;;;;9.18;2.30;;;;;;;30.45;95.54;100634.91;5039929;28;20029;-78
2023/09/06 09:49:22;;;;;;;12.30;2.08;;;;;;;30.62;85.04;100632.22;5036101;28;20489;-79
2023/09/06 09:51:50;;;;;;;9.95;2.00;;;;;;;30.83;89.99;100626.22;5016415;28;20040;-79
2023/09/06 09:54:16;;;;;;;7.72;1.80;;;;;;;31.06;86.96;100627.53;5036112;28;20068;-78
2023/09/06 09:56:42;;;;;;;11.80;1.60;;;;;;;31.18;68.05;100624.09;5021592;28;20030;-79
2023/09/06 09:59:08;;;;;;;9.18;1.63;;;;;;;31.29;67.97;100626.81;5027258;28;20079;-79
2023/09/06 10:01:33;;;;;;;10.38;2.22;;;;;;;31.43;66.70;100629.47;5008038;28;20026;-78
2023/09/06 10:04:05;;;;;;;13.38;1.83;;;;;;;31.63;62.00;100626.66;5055776;28;20359;-79
2023/09/06 10:06:31;;;;;;;8.13;1.80;;;;;;;31.78;64.51;100622.28;5020454;28;20036;-78
2023/09/06 10:09:00;;;;;;;9.48;1.60;;;;;;;31.91;57.91;100625.38;5012015;28;20037;-79
2023/09/06 10:11:26;;;;;;;12.43;1.67;;;;;;;32.07;55.03;100621.81;5018051;28;20122;-78
2023/09/06 10:13:52;;;;;;;12.50;1.98;;;;;;;32.21;49.64;100621.53;5006800;28;20128;-78
2023/09/06 10:16:19;;;;;;;8.80;1.42;;;;;;;32.31;50.53;100619.66;4990829;28;20034;-78
2023/09/06 10:18:44;;;;;;;15.27;2.15;;;;;;;32.36;49.54;100615.47;5036139;28;20548;-78
2023/09/06 10:21:10;;;;;;;12.15;1.88;;;;;;;32.42;46.83;100613.69;5036097;28;20123;-79
2023/09/06 10:23:42;;;;;;;13.68;2.00;;;;;;;32.53;48.50;100620.06;5006939;28;20025;-78
2023/09/06 10:26:08;;;;;;;10.27;1.88;;;;;;;32.64;46.23;100609.16;5043011;28;20115;-79
2023/09/06 10:28:34;;;;;;;13.82;1.90;;;;;;;32.77;44.42;100614.22;5023588;28;20119;-79
2023/09/06 10:31:07;;;;;;;11.10;1.90;;;;;;;32.84;42.99;100616.94;5039368;28;20033;-79
2023/09/06 10:33:35;;;;;;;10.93;2.03;;;;;;;32.98;43.03;100615.78;5020632;28;20049;-79
2023/09/06 10:36:14;;;;;;;10.18;2.10;;;;;;;33.08;42.86;100604.06;5047602;28;20029;-79
2023/09/06 10:38:52;;;;;;;11.85;2.40;;;;;;;33.11;39.28;100611.81;5027157;28;20045;-79
2023/09/06 10:41:21;;;;;;;13.00;2.10;;;;;;;33.21;39.17;100600.47;5040514;28;20033;-79
2023/09/06 10:44:00;;;;;;;13.05;2.13;;;;;;;33.17;40.04;100605.53;5039919;28;20032;-79
2023/09/06 10:46:33;;;;;;;10.65;1.77;;;;;;;33.18;40.38;100604.25;5047988;28;20039;-79
2023/09/06 10:49:22;;;;;;;13.48;2.25;;;;;;;33.17;39.83;100602.66;5043251;28;20049;-79
2023/09/06 10:51:57;;;;;;;11.95;1.85;;;;;;;33.12;41.21;100604.78;5044956;28;20068;-79
2023/09/06 10:54:34;;;;;;;13.55;1.75;;;;;;;33.14;42.35;100605.16;5019297;28;20033;-79
2023/09/06 10:57:08;;;;;;;11.75;1.90;;;;;;;33.06;40.90;100606.56;5041284;28;20593;-79
2023/09/06 10:59:38;;;;;;;11.85;1.88;;;;;;;33.07;44.07;100605.34;5028308;28;20508;-79
2023/09/06 11:02:07;;;;;;;12.05;2.10;;;;;;;33.06;43.39;100600.81;5037042;28;20025;-79
2023/09/06 11:04:32;;;;;;;9.50;2.13;;;;;;;33.09;40.95;100602.81;5042847;28;20492;-79
2023/09/06 11:06:58;;;;;;;14.07;2.05;;;;;;;33.10;42.69;100600.75;5012714;28;20072;-79
2023/09/06 11:09:25;;;;;;;13.52;2.40;;;;;;;33.10;43.21;100595.81;5001981;28;20025;-79
2023/09/06 11:11:53;;;;;;;13.05;2.35;;;;;;;33.18;46.19;100601.38;5016709;28;20493;-79